createdAt,value
2022-12-16T00:04:16.052Z,1004.6
2022-12-16T00:10:39.149Z,1004.6
2022-12-16T00:16:59.113Z,1004.64
2022-12-16T00:23:22.130Z,1004.66
2022-12-16T00:29:42.151Z,1004.72
2022-12-16T00:36:05.184Z,1004.74
2022-12-16T00:42:25.051Z,1004.76
2022-12-16T00:48:48.038Z,1004.8
2022-12-16T00:55:08.018Z,1004.76
2022-12-16T01:01:31.090Z,1004.74
2022-12-16T01:07:51.153Z,1004.72
2022-12-16T01:14:14.072Z,1004.72
2022-12-16T01:20:34.034Z,1004.78
2022-12-16T01:26:57.049Z,1004.82
2022-12-16T01:33:17.019Z,1004.94
2022-12-16T01:39:40.114Z,1004.95
2022-12-16T01:46:00.024Z,1004.97
2022-12-16T01:52:23.019Z,1005.03
2022-12-16T01:58:43.005Z,1005.07
2022-12-16T02:05:06.034Z,1005.07
2022-12-16T02:11:26.012Z,1005.07
2022-12-16T02:17:49.015Z,1005.07
2022-12-16T02:24:09.009Z,1005.07
2022-12-16T02:30:32.104Z,1005.11
2022-12-16T02:36:51.967Z,1005.13
2022-12-16T02:43:14.973Z,1005.15
2022-12-16T02:49:35.004Z,1005.19
2022-12-16T02:55:57.978Z,1005.19
2022-12-16T03:02:18.127Z,1005.23
2022-12-16T03:08:41.101Z,1005.27
2022-12-16T03:15:01.003Z,1005.23
2022-12-16T03:21:23.985Z,1005.21
2022-12-16T03:27:44.171Z,1005.19
2022-12-16T03:34:07.086Z,1005.21
2022-12-16T03:40:27.025Z,1005.21
2022-12-16T03:46:50.009Z,1005.27
2022-12-16T03:53:09.970Z,1005.36
2022-12-16T03:59:33.010Z,1005.4
2022-12-16T04:05:53.042Z,1005.38
2022-12-16T04:29:52.087Z,1005.53
2022-12-16T04:36:14.991Z,1005.57
2022-12-16T04:42:35.170Z,1005.61
2022-12-16T04:48:58.005Z,1005.63
2022-12-16T04:55:18.041Z,1005.69
2022-12-16T05:01:41.150Z,1005.78
2022-12-16T05:08:00.998Z,1005.9
2022-12-16T05:14:23.991Z,1006
2022-12-16T05:20:44.041Z,1006.06
2022-12-16T05:27:07.014Z,1006.06
2022-12-16T05:33:26.982Z,1006.16
2022-12-16T05:39:49.989Z,1006.23
2022-12-16T05:46:10.214Z,1006.31
2022-12-16T05:52:33.050Z,1006.41
2022-12-16T05:58:52.976Z,1006.49
2022-12-16T06:05:15.998Z,1006.57
2022-12-16T06:11:35.973Z,1006.65
2022-12-16T06:17:58.994Z,1006.72
2022-12-16T06:24:19.096Z,1006.84
2022-12-16T06:30:42.133Z,1006.88
2022-12-16T06:37:02.049Z,1007
2022-12-16T06:43:25.076Z,1007.12
2022-12-16T06:49:45.056Z,1007.25
2022-12-16T06:56:07.987Z,1007.31
2022-12-16T07:02:28.172Z,1007.39
2022-12-16T07:08:50.976Z,1007.47
2022-12-16T07:15:11.028Z,1007.54
2022-12-16T07:21:34.026Z,1007.6
2022-12-16T07:27:53.972Z,1007.7
2022-12-16T07:34:16.984Z,1007.86
2022-12-16T07:40:37.051Z,1008.08
2022-12-16T07:47:00.042Z,1008.2
2022-12-16T07:53:20.005Z,1008.32
2022-12-16T07:59:42.996Z,1008.45
2022-12-16T08:06:03.034Z,1008.57
2022-12-16T08:12:25.988Z,1008.65
2022-12-16T08:18:46.001Z,1008.67
2022-12-16T08:25:08.980Z,1008.77
2022-12-16T08:31:29.033Z,1008.84
2022-12-16T08:37:52.013Z,1008.84
2022-12-16T08:44:11.994Z,1008.88
2022-12-16T08:50:35.034Z,1008.96
2022-12-16T08:56:55.197Z,1009
2022-12-16T09:03:18.223Z,1009.04
2022-12-16T09:09:37.979Z,1009.08
2022-12-16T09:16:01.223Z,1009.12
2022-12-16T09:39:25.024Z,1009.33
2022-12-16T09:45:44.978Z,1009.35
2022-12-16T09:52:07.992Z,1009.45
2022-12-16T09:58:28.089Z,1009.53
2022-12-16T10:04:51.013Z,1009.59
2022-12-16T10:11:11.019Z,1009.63
2022-12-16T10:17:34.147Z,1009.69
2022-12-16T10:23:53.983Z,1009.73
2022-12-16T10:30:17.037Z,1009.73
2022-12-16T10:36:37.085Z,1009.75
2022-12-16T10:42:59.989Z,1009.73
2022-12-16T10:49:20.071Z,1009.78
2022-12-16T10:55:43.056Z,1009.78
2022-12-16T11:02:03.076Z,1009.82
2022-12-16T11:08:26.005Z,1009.84
2022-12-16T11:14:59.462Z,1009.84
2022-12-16T11:21:10.546Z,1009.86
2022-12-16T11:27:29.013Z,1009.84
2022-12-16T11:33:52.005Z,1009.86
2022-12-16T11:40:12.186Z,1009.86
2022-12-16T11:46:35.043Z,1009.84
2022-12-16T11:52:55.088Z,1009.82
2022-12-16T11:59:18.024Z,1009.82
2022-12-16T12:05:37.988Z,1009.82
2022-12-16T12:12:01.006Z,1009.9
2022-12-16T12:18:20.969Z,1009.92
2022-12-16T12:24:44.273Z,1009.96
2022-12-16T12:31:04.017Z,1009.98
2022-12-16T12:37:26.969Z,1010.04
2022-12-16T12:43:47.050Z,1010.04
2022-12-16T12:50:10.019Z,1010.08
2022-12-16T12:56:30.066Z,1010.12
2022-12-16T13:02:53.195Z,1010.12
2022-12-16T13:09:13.092Z,1010.14
2022-12-16T13:15:35.980Z,1010.1
2022-12-16T13:21:56.489Z,1010.1
2022-12-16T13:28:19.083Z,1010.14
2022-12-16T13:34:38.975Z,1010.14
2022-12-16T13:41:02.117Z,1010.2
2022-12-16T13:47:22.004Z,1010.24
2022-12-16T13:53:45.029Z,1010.31
2022-12-16T14:00:05.246Z,1010.37
2022-12-16T14:06:28.013Z,1010.47
2022-12-16T14:12:49.472Z,1010.55
2022-12-16T14:19:11.067Z,1010.69
2022-12-16T14:41:58.526Z,1010.97
2022-12-16T14:48:18.021Z,1011.01
2022-12-16T14:54:41.042Z,1011.07
2022-12-16T15:01:01.097Z,1011.12
2022-12-16T15:07:29.468Z,1011.2
2022-12-16T15:13:44.290Z,1011.3
2022-12-16T15:20:07.064Z,1011.38
2022-12-16T15:26:27.069Z,1011.44
2022-12-16T15:32:50.045Z,1011.53
2022-12-16T15:39:10.089Z,1011.65
2022-12-16T15:45:33.066Z,1011.75
2022-12-16T15:51:52.997Z,1011.89
2022-12-16T15:58:16.123Z,1011.98
2022-12-16T16:04:35.990Z,1012.08
2022-12-16T16:10:59.086Z,1012.16
2022-12-16T16:17:19.179Z,1012.24
2022-12-16T16:23:41.973Z,1012.34
2022-12-16T16:30:02.101Z,1012.47
2022-12-16T16:36:25.060Z,1012.57
2022-12-16T16:42:44.991Z,1012.69
2022-12-16T16:49:08.152Z,1012.77
2022-12-16T16:55:27.999Z,1012.89
2022-12-16T17:01:51.217Z,1012.98
2022-12-16T17:08:10.983Z,1013.06
2022-12-16T17:14:34.003Z,1013.25
2022-12-16T17:28:10.975Z,1013.28
2022-12-16T17:34:31.100Z,1013.34
2022-12-16T17:40:53.968Z,1013.42
2022-12-16T17:47:14.045Z,1013.48
2022-12-16T17:53:37.323Z,1013.62
2022-12-16T17:59:57.214Z,1013.74
2022-12-16T18:06:20.050Z,1013.77
2022-12-16T18:12:40.002Z,1013.91
2022-12-16T18:19:03.050Z,1013.99
2022-12-16T18:25:23.054Z,1014.09
2022-12-16T18:31:46.387Z,1014.13
2022-12-16T18:38:05.986Z,1014.19
2022-12-16T18:44:28.978Z,1014.3
2022-12-16T18:50:49.002Z,1014.36
2022-12-16T18:57:11.979Z,1014.38
2022-12-16T19:03:32.004Z,1014.42
2022-12-16T19:09:55.081Z,1014.38
2022-12-16T19:26:02.016Z,1014.52
2022-12-16T19:32:25.040Z,1014.62
2022-12-16T19:38:44.991Z,1014.66
2022-12-16T19:45:08.049Z,1014.77
2022-12-16T19:51:28.017Z,1014.83
2022-12-16T19:57:51.038Z,1014.89
2022-12-16T20:04:11.037Z,1014.93
2022-12-16T20:10:34.141Z,1014.99
2022-12-16T20:16:53.982Z,1015.05
2022-12-16T20:23:17.051Z,1015.11
2022-12-16T20:29:37.054Z,1015.15
2022-12-16T20:35:59.981Z,1015.16
2022-12-16T20:42:20.118Z,1015.22
2022-12-16T20:48:42.981Z,1015.26
2022-12-16T20:55:03.051Z,1015.36
2022-12-16T21:01:26.102Z,1015.44
2022-12-16T21:07:45.978Z,1015.5
2022-12-16T21:14:09.058Z,1015.58
2022-12-16T21:20:29.051Z,1015.63
2022-12-16T21:26:52.061Z,1015.78
2022-12-16T21:33:13.242Z,1015.86
2022-12-16T21:39:36.053Z,1015.92
2022-12-16T21:45:56.098Z,1016.03
2022-12-16T21:52:18.982Z,1016.09
2022-12-16T21:58:39.006Z,1016.17
2022-12-16T22:05:02.151Z,1016.27
2022-12-16T22:11:22.079Z,1016.33
2022-12-16T22:17:45.085Z,1016.41
2022-12-16T22:24:05.024Z,1016.54
2022-12-16T22:30:28.130Z,1016.6
2022-12-16T22:36:48.043Z,1016.68
2022-12-16T22:43:10.967Z,1016.72
2022-12-16T22:49:31.053Z,1016.78
2022-12-16T22:55:57.358Z,1016.84
2022-12-16T23:20:08.010Z,1016.86
2022-12-16T23:26:27.981Z,1016.86
2022-12-16T23:32:51.022Z,1016.84
2022-12-16T23:39:11.109Z,1016.92
2022-12-16T23:45:34.056Z,1016.97
2022-12-16T23:51:54.088Z,1017.05
2022-12-16T23:58:17.032Z,1017.11
